Time;durP1;ratioP1;P1;durP2;ratioP2;P2;SDS_P1;SDS_P2;PMS_P1;PMS_P2;Temp;Humidity;BMP_temperature;BMP_pressure;BME280_temperature;BME280_humidity;BME280_pressure;Samples;Min_cycle;Max_cycle;Signal;HPM_P1;HPM_P2
2022/05/24 00:00:24;;;;;;;2.38;1.00;;;12.10;99.90;;;;;;5019825;28;20018;-77
2022/05/24 00:02:50;;;;;;;3.22;1.10;;;12.20;99.90;;;;;;5019363;28;20050;-74
2022/05/24 00:05:16;;;;;;;2.45;1.20;;;12.10;99.90;;;;;;5004308;28;20324;-76
2022/05/24 00:07:43;;;;;;;1.58;0.93;;;12.10;99.90;;;;;;5003662;28;20026;-75
2022/05/24 00:10:12;;;;;;;1.83;1.00;;;12.10;99.90;;;;;;5019730;28;20030;-76
2022/05/24 00:12:39;;;;;;;2.55;1.20;;;12.10;99.90;;;;;;5003351;28;20030;-75
2022/05/24 00:18:11;;;;;;;1.95;1.08;;;12.00;99.90;;;;;;5003309;28;20036;-74
2022/05/24 00:20:40;;;;;;;2.30;1.17;;;11.90;99.90;;;;;;5004488;28;20022;-74
2022/05/24 00:23:07;;;;;;;4.78;1.15;;;11.90;99.90;;;;;;5003365;28;20097;-75
2022/05/24 00:25:36;;;;;;;2.70;1.40;;;11.90;99.90;;;;;;5003042;28;20045;-75
2022/05/24 00:28:04;;;;;;;1.92;1.30;;;11.90;99.90;;;;;;5004361;28;20238;-75
2022/05/24 00:30:29;;;;;;;3.25;1.60;;;11.90;99.90;;;;;;5004272;28;20018;-75
2022/05/24 00:32:55;;;;;;;2.38;1.35;;;11.90;99.90;;;;;;5003116;28;20018;-73
2022/05/24 00:35:21;;;;;;;2.58;1.13;;;11.90;99.90;;;;;;5004003;28;20026;-76
2022/05/24 00:37:48;;;;;;;2.42;1.23;;;11.90;99.90;;;;;;4985343;28;20026;-73
2022/05/24 00:40:37;;;;;;;2.25;1.20;;;11.90;99.90;;;;;;4986696;28;20081;-76
2022/05/24 00:43:09;;;;;;;2.75;1.20;;;11.90;99.90;;;;;;5003328;28;20022;-75
2022/05/24 00:45:39;;;;;;;1.80;1.42;;;12.00;99.90;;;;;;5003803;28;20214;-75
2022/05/24 00:48:08;;;;;;;3.13;1.70;;;11.90;99.90;;;;;;5003554;28;20308;-74
2022/05/24 00:50:41;;;;;;;1.70;1.50;;;12.00;99.90;;;;;;5004203;28;20030;-74
2022/05/24 00:53:18;;;;;;;3.38;1.52;;;12.00;99.90;;;;;;5004179;28;20065;-75
2022/05/24 00:55:51;;;;;;;2.95;1.80;;;12.00;99.90;;;;;;5003894;28;20190;-73
2022/05/24 00:58:41;;;;;;;2.97;1.77;;;12.00;99.90;;;;;;5004031;28;20226;-73
2022/05/24 01:01:28;;;;;;;3.10;1.88;;;12.00;99.90;;;;;;5003185;28;20050;-72
2022/05/24 01:03:53;;;;;;;3.20;1.95;;;12.00;99.90;;;;;;5004032;28;20024;-72
2022/05/24 01:06:19;;;;;;;4.78;2.20;;;12.00;99.90;;;;;;5003615;28;20053;-72
2022/05/24 01:08:45;;;;;;;3.47;2.30;;;11.90;99.90;;;;;;5002891;28;20092;-72
2022/05/24 01:11:12;;;;;;;2.88;1.85;;;11.90;99.90;;;;;;5002548;28;20068;-72
2022/05/24 01:13:39;;;;;;;2.28;2.00;;;11.90;99.90;;;;;;5003993;28;20233;-72
2022/05/24 01:16:06;;;;;;;4.10;2.38;;;11.80;99.90;;;;;;5019343;28;20022;-72
2022/05/24 01:18:32;;;;;;;4.47;2.20;;;11.80;99.90;;;;;;5004058;28;20022;-72
2022/05/24 01:21:04;;;;;;;4.13;1.95;;;11.80;99.90;;;;;;5003657;28;20324;-72
2022/05/24 01:24:04;;;;;;;3.65;1.80;;;11.80;99.90;;;;;;4986167;28;20094;-72
2022/05/24 01:26:54;;;;;;;3.08;1.80;;;11.80;99.90;;;;;;5002663;28;20037;-71
2022/05/24 01:29:23;;;;;;;3.35;1.80;;;11.80;99.90;;;;;;5004522;28;20025;-71
2022/05/24 01:37:22;;;;;;;2.63;1.73;;;11.90;99.90;;;;;;5019845;28;20022;-71
2022/05/24 01:39:52;;;;;;;4.32;1.48;;;11.90;99.90;;;;;;5005866;28;20030;-71
2022/05/24 01:42:19;;;;;;;3.58;1.75;;;11.90;99.90;;;;;;4990359;28;20110;-70
2022/05/24 01:45:09;;;;;;;3.25;1.40;;;11.80;99.90;;;;;;5007139;28;20076;-71
2022/05/24 01:47:35;;;;;;;4.28;1.45;;;11.80;99.90;;;;;;4993056;28;20212;-71
2022/05/24 01:50:06;;;;;;;2.83;1.15;;;11.90;99.90;;;;;;5007130;28;20026;-71
2022/05/24 01:52:39;;;;;;;1.75;1.00;;;11.80;99.90;;;;;;5006858;28;20336;-71
2022/05/24 01:55:11;;;;;;;3.00;1.00;;;11.80;99.90;;;;;;5006322;28;20027;-71
2022/05/24 01:57:45;;;;;;;1.73;0.98;;;11.80;99.90;;;;;;5006081;28;20244;-70
2022/05/24 02:00:13;;;;;;;2.40;0.75;;;11.80;99.90;;;;;;5006890;28;20018;-70
2022/05/24 02:02:39;;;;;;;1.25;0.70;;;11.80;99.90;;;;;;5005612;28;20050;-69
2022/05/24 02:05:06;;;;;;;1.08;0.73;;;11.80;99.90;;;;;;5006622;28;20194;-69
2022/05/24 02:07:33;;;;;;;2.53;1.00;;;11.80;99.90;;;;;;5005639;28;20022;-69
2022/05/24 02:09:59;;;;;;;0.73;0.60;;;11.80;99.90;;;;;;5005645;28;20301;-70
2022/05/24 02:12:30;;;;;;;2.05;0.70;;;11.80;99.90;;;;;;5005828;28;20026;-70
2022/05/24 02:15:02;;;;;;;0.88;0.50;;;11.80;99.90;;;;;;5006819;28;20217;-69
2022/05/24 02:17:35;;;;;;;2.28;0.88;;;11.70;99.90;;;;;;5005707;28;20354;-70
2022/05/24 02:20:02;;;;;;;1.50;0.65;;;11.70;99.90;;;;;;5005795;28;20018;-69
2022/05/24 02:22:29;;;;;;;1.17;0.60;;;11.70;99.90;;;;;;5005574;28;20023;-69
2022/05/24 02:25:09;;;;;;;2.10;0.55;;;11.70;99.90;;;;;;5006532;28;20085;-70
2022/05/24 02:27:40;;;;;;;0.52;0.30;;;11.60;99.90;;;;;;5006449;28;20038;-69
2022/05/24 02:30:06;;;;;;;1.17;0.50;;;11.60;99.90;;;;;;5006650;28;20213;-69
2022/05/24 02:32:32;;;;;;;3.22;0.60;;;11.60;99.90;;;;;;5005325;28;20018;-69
2022/05/24 02:34:58;;;;;;;0.82;0.52;;;11.70;99.90;;;;;;5021122;28;20097;-69
2022/05/24 02:37:23;;;;;;;1.17;0.77;;;11.60;99.90;;;;;;5006345;28;20022;-70
2022/05/24 02:42:35;;;;;;;1.92;0.47;;;11.60;99.90;;;;;;4999412;28;20034;-69
2022/05/24 02:45:02;;;;;;;1.33;0.82;;;11.60;99.90;;;;;;4986472;28;20061;-69
2022/05/24 02:47:28;;;;;;;1.27;0.47;;;11.60;99.90;;;;;;4999573;28;20030;-69
2022/05/24 02:49:54;;;;;;;1.27;0.40;;;11.60;99.90;;;;;;5004947;28;20022;-69
2022/05/24 02:52:19;;;;;;;0.40;0.40;;;11.60;99.90;;;;;;5004964;28;20451;-69
2022/05/24 02:54:45;;;;;;;3.78;0.70;;;11.60;99.90;;;;;;5004507;28;20029;-69
2022/05/24 02:57:10;;;;;;;1.05;0.40;;;11.60;99.90;;;;;;5005909;28;20081;-68
2022/05/24 02:59:36;;;;;;;0.40;0.40;;;11.60;99.90;;;;;;5005156;28;20026;-69
2022/05/24 03:02:06;;;;;;;0.40;0.30;;;11.50;99.90;;;;;;5005440;28;20277;-69
2022/05/24 03:04:33;;;;;;;1.73;0.50;;;11.50;99.90;;;;;;5005312;28;20034;-69
2022/05/24 03:09:44;;;;;;;0.85;0.50;;;11.50;99.90;;;;;;4991326;28;20018;-69
2022/05/24 03:14:56;;;;;;;1.05;0.55;;;11.50;99.90;;;;;;5004854;28;20018;-68
2022/05/24 03:17:23;;;;;;;0.30;0.30;;;11.50;99.90;;;;;;5005593;28;20042;-69
2022/05/24 03:19:49;;;;;;;0.55;0.40;;;11.50;99.90;;;;;;5005625;28;20038;-69
2022/05/24 03:22:15;;;;;;;2.10;0.43;;;11.50;99.90;;;;;;5005515;28;20053;-69
2022/05/24 03:24:41;;;;;;;0.80;0.50;;;11.50;99.90;;;;;;5005171;28;20022;-69
2022/05/24 03:27:11;;;;;;;1.13;0.50;;;11.50;99.90;;;;;;5004342;28;20038;-69
2022/05/24 03:29:38;;;;;;;1.38;0.50;;;11.50;99.90;;;;;;5004455;28;20040;-69
2022/05/24 03:32:06;;;;;;;2.95;1.15;;;11.50;99.90;;;;;;5005204;28;20018;-68
2022/05/24 03:34:31;;;;;;;3.03;0.82;;;11.50;99.90;;;;;;5005000;28;20022;-69
2022/05/24 03:36:57;;;;;;;0.82;0.40;;;11.50;99.90;;;;;;5005277;28;20082;-69
2022/05/24 03:39:23;;;;;;;1.73;0.50;;;11.60;99.90;;;;;;5020178;28;20336;-68
2022/05/24 03:41:48;;;;;;;1.38;0.45;;;11.60;99.90;;;;;;5003791;28;20022;-69
2022/05/24 03:44:14;;;;;;;0.68;0.60;;;11.50;99.90;;;;;;5005109;28;20093;-69
2022/05/24 03:46:40;;;;;;;0.57;0.40;;;11.50;99.90;;;;;;5003750;28;20030;-72
2022/05/24 03:49:05;;;;;;;0.60;0.60;;;11.50;99.90;;;;;;5004079;28;20034;-71
2022/05/24 03:51:31;;;;;;;1.25;0.90;;;11.50;99.90;;;;;;5004380;28;20026;-71
2022/05/24 03:53:57;;;;;;;2.15;0.60;;;11.50;99.90;;;;;;5003576;28;20030;-70
2022/05/24 03:56:24;;;;;;;1.83;0.73;;;11.50;99.90;;;;;;5005020;28;20076;-71
2022/05/24 03:58:49;;;;;;;2.85;1.00;;;11.50;99.90;;;;;;5020107;28;20029;-68
2022/05/24 04:01:15;;;;;;;4.30;1.13;;;11.60;99.90;;;;;;5003674;28;20327;-70
2022/05/24 04:03:41;;;;;;;2.45;0.77;;;11.60;99.90;;;;;;5004491;28;20041;-70
2022/05/24 04:06:07;;;;;;;0.90;0.90;;;11.50;99.90;;;;;;5003300;28;20049;-70
2022/05/24 04:08:35;;;;;;;1.95;0.95;;;11.50;99.90;;;;;;5019814;28;20045;-71
2022/05/24 04:11:08;;;;;;;1.65;0.93;;;11.50;99.90;;;;;;5004786;28;20094;-70
2022/05/24 04:13:36;;;;;;;2.45;1.27;;;11.50;99.90;;;;;;5002937;28;20054;-70
2022/05/24 04:16:02;;;;;;;1.45;1.20;;;11.50;99.90;;;;;;5003435;28;20089;-70
2022/05/24 04:18:27;;;;;;;1.35;1.20;;;11.50;99.90;;;;;;5003641;28;20309;-70
2022/05/24 04:20:54;;;;;;;1.20;1.20;;;11.60;99.90;;;;;;5004365;28;20042;-71
2022/05/24 04:23:21;;;;;;;4.65;1.38;;;11.60;99.90;;;;;;5003038;28;20030;-70
2022/05/24 04:25:48;;;;;;;2.33;1.45;;;11.50;99.90;;;;;;5004308;28;20023;-71
2022/05/24 04:28:14;;;;;;;2.90;1.40;;;11.50;99.90;;;;;;5003438;28;20026;-70
2022/05/24 04:30:40;;;;;;;2.88;1.40;;;11.60;99.90;;;;;;5004408;28;20311;-71
2022/05/24 04:33:06;;;;;;;1.92;1.30;;;11.60;99.90;;;;;;5004296;28;20117;-70
2022/05/24 04:35:32;;;;;;;2.00;1.70;;;11.60;99.90;;;;;;5003793;28;20065;-70
2022/05/24 04:38:00;;;;;;;2.17;1.42;;;11.60;99.90;;;;;;5004151;28;20321;-71
2022/05/24 04:43:12;;;;;;;4.13;1.60;;;11.60;99.90;;;;;;5003210;28;20324;-70
2022/05/24 04:45:37;;;;;;;3.92;1.27;;;11.60;99.90;;;;;;5004033;28;20022;-70
2022/05/24 04:48:05;;;;;;;3.85;1.58;;;11.60;99.90;;;;;;5004134;28;20026;-70
2022/05/24 04:50:31;;;;;;;2.67;1.30;;;11.70;99.90;;;;;;4987061;28;20281;-70
2022/05/24 04:52:56;;;;;;;2.45;1.20;;;11.60;99.90;;;;;;5003829;28;20040;-70
2022/05/24 04:55:25;;;;;;;2.42;1.08;;;11.60;99.90;;;;;;5003139;28;20018;-71
2022/05/24 04:57:50;;;;;;;2.30;1.20;;;11.60;99.90;;;;;;5004174;28;20019;-69
2022/05/24 05:00:17;;;;;;;5.88;1.10;;;11.60;99.90;;;;;;5019442;28;20056;-69
2022/05/24 05:02:43;;;;;;;1.30;1.08;;;11.60;99.90;;;;;;5004335;28;20053;-69
2022/05/24 05:05:09;;;;;;;1.40;1.08;;;11.60;99.90;;;;;;5007670;28;20224;-69
2022/05/24 05:07:35;;;;;;;1.85;1.08;;;11.70;99.90;;;;;;5008167;28;20022;-68
2022/05/24 05:10:00;;;;;;;4.82;1.10;;;11.70;99.90;;;;;;5007125;28;20034;-69
2022/05/24 05:12:26;;;;;;;2.80;1.02;;;11.70;99.90;;;;;;5007787;28;20301;-69
2022/05/24 05:14:53;;;;;;;1.70;1.10;;;11.70;99.90;;;;;;5007730;28;20082;-69
2022/05/24 05:17:19;;;;;;;2.83;1.67;;;11.70;99.90;;;;;;5007101;28;20026;-69
2022/05/24 05:19:46;;;;;;;3.53;1.42;;;11.70;99.90;;;;;;5007061;28;20046;-69
2022/05/24 05:22:12;;;;;;;1.73;1.00;;;11.70;99.90;;;;;;5007179;28;20022;-69
2022/05/24 05:24:38;;;;;;;2.97;1.13;;;11.80;99.90;;;;;;5007476;28;20065;-70
2022/05/24 05:27:05;;;;;;;1.30;1.10;;;11.80;99.90;;;;;;5006803;28;20205;-69
2022/05/24 05:32:19;;;;;;;4.88;1.70;;;11.90;99.90;;;;;;5007623;28;20065;-69
2022/05/24 05:34:45;;;;;;;1.45;1.17;;;11.90;99.90;;;;;;5010815;28;20032;-70
2022/05/24 05:37:11;;;;;;;3.17;1.20;;;11.90;99.90;;;;;;5018317;28;20037;-70
2022/05/24 05:39:37;;;;;;;2.63;0.98;;;11.90;99.90;;;;;;5018469;28;20010;-69
2022/05/24 05:42:03;;;;;;;2.65;0.90;;;11.90;99.90;;;;;;5019041;28;20014;-70
2022/05/24 05:44:29;;;;;;;1.65;0.90;;;11.90;99.90;;;;;;5020749;28;20094;-69
2022/05/24 05:46:56;;;;;;;1.55;1.10;;;11.90;99.90;;;;;;5020970;28;20015;-69
2022/05/24 05:49:21;;;;;;;0.95;0.63;;;11.90;99.90;;;;;;5021059;28;20014;-69
2022/05/24 05:51:48;;;;;;;1.95;0.80;;;11.90;99.90;;;;;;5021192;28;20026;-70
2022/05/24 05:54:13;;;;;;;1.10;1.00;;;11.90;99.90;;;;;;5018840;28;20201;-69
2022/05/24 05:56:40;;;;;;;3.38;0.90;;;11.90;99.90;;;;;;5009894;28;20030;-69
2022/05/24 05:59:06;;;;;;;1.88;0.90;;;12.00;99.90;;;;;;5009704;28;20022;-69
2022/05/24 06:01:32;;;;;;;1.02;0.93;;;12.00;99.90;;;;;;5007064;28;20061;-71
2022/05/24 06:03:59;;;;;;;2.80;0.60;;;12.00;99.90;;;;;;5006171;28;20022;-70
2022/05/24 06:06:28;;;;;;;0.77;0.77;;;12.10;99.90;;;;;;5005929;28;20026;-70
2022/05/24 06:08:54;;;;;;;1.40;0.70;;;12.10;99.90;;;;;;5006225;28;20065;-69
2022/05/24 06:11:19;;;;;;;1.30;1.20;;;12.10;99.90;;;;;;5007164;28;20018;-69
2022/05/24 06:13:46;;;;;;;1.05;0.93;;;12.10;99.90;;;;;;5006873;28;20026;-69
2022/05/24 06:16:13;;;;;;;4.10;1.10;;;12.20;99.90;;;;;;5006034;28;20102;-69
2022/05/24 06:18:39;;;;;;;2.08;0.77;;;12.20;99.90;;;;;;5006989;28;20029;-69
2022/05/24 06:21:05;;;;;;;4.15;0.88;;;12.20;99.90;;;;;;5005512;28;20030;-72
2022/05/24 06:23:31;;;;;;;1.15;0.60;;;12.30;99.90;;;;;;5005552;28;20050;-70
2022/05/24 06:25:57;;;;;;;3.78;0.70;;;12.40;99.90;;;;;;5005290;28;20023;-70
2022/05/24 06:28:23;;;;;;;1.77;0.50;;;12.40;99.90;;;;;;5021850;28;20034;-71
2022/05/24 06:30:49;;;;;;;2.80;1.20;;;12.40;99.90;;;;;;5006614;28;20051;-71
2022/05/24 06:33:15;;;;;;;1.30;0.70;;;12.50;99.90;;;;;;5005272;28;20038;-69
2022/05/24 06:35:41;;;;;;;0.93;0.60;;;12.60;99.90;;;;;;5004609;28;20038;-71
2022/05/24 06:38:07;;;;;;;1.25;0.50;;;12.70;99.90;;;;;;5021338;28;20026;-70
2022/05/24 06:40:34;;;;;;;1.73;0.60;;;12.70;99.90;;;;;;5006274;28;20021;-69
2022/05/24 06:43:00;;;;;;;1.27;0.65;;;12.80;99.90;;;;;;5003321;28;20045;-70
2022/05/24 06:45:26;;;;;;;3.58;0.60;;;12.80;99.90;;;;;;5005368;28;20302;-71
2022/05/24 06:47:52;;;;;;;8.02;0.90;;;12.90;99.90;;;;;;5005981;28;20034;-69
2022/05/24 06:50:18;;;;;;;0.75;0.60;;;13.00;99.90;;;;;;5006262;28;20026;-70
2022/05/24 06:52:44;;;;;;;5.80;0.57;;;13.00;99.90;;;;;;5005674;28;20057;-70
2022/05/24 06:55:11;;;;;;;2.45;0.80;;;13.20;99.90;;;;;;5005997;28;20052;-71
2022/05/24 06:57:36;;;;;;;3.92;1.40;;;13.20;99.90;;;;;;5004695;28;20030;-71
2022/05/24 07:03:00;;;;;;;2.28;0.85;;;13.20;99.90;;;;;;5004776;28;20070;-69
2022/05/24 07:05:26;;;;;;;2.35;0.95;;;13.20;99.90;;;;;;5003944;28;20072;-69
2022/05/24 07:07:52;;;;;;;6.88;1.10;;;13.40;99.90;;;;;;5005382;28;20302;-69
2022/05/24 07:10:18;;;;;;;4.55;1.00;;;13.50;99.90;;;;;;5004385;28;20038;-70
2022/05/24 07:12:45;;;;;;;1.83;0.80;;;13.70;99.90;;;;;;5004369;28;20030;-68
2022/05/24 07:15:11;;;;;;;4.55;0.60;;;13.80;99.90;;;;;;5005294;28;20026;-69
2022/05/24 07:17:37;;;;;;;2.88;0.60;;;13.90;99.90;;;;;;5004232;28;20030;-68
2022/05/24 07:20:03;;;;;;;2.47;0.68;;;13.90;99.90;;;;;;5004481;28;20094;-68
2022/05/24 07:22:30;;;;;;;8.73;0.93;;;14.00;99.90;;;;;;5003842;28;20022;-69
2022/05/24 07:24:55;;;;;;;3.25;0.65;;;14.10;99.90;;;;;;5004881;28;20086;-70
2022/05/24 07:27:22;;;;;;;4.55;0.98;;;14.10;99.90;;;;;;5003460;28;20022;-70
2022/05/24 07:29:49;;;;;;;2.85;0.85;;;14.30;99.90;;;;;;5003409;28;20089;-69
2022/05/24 07:32:16;;;;;;;3.70;1.25;;;14.40;99.90;;;;;;5005194;28;20026;-69
2022/05/24 07:34:41;;;;;;;5.45;0.70;;;14.50;99.80;;;;;;5003571;28;20030;-69
2022/05/24 07:37:13;;;;;;;1.15;0.50;;;14.60;99.60;;;;;;5004478;28;20384;-68
2022/05/24 07:39:39;;;;;;;;;;;14.60;98.70;;;;;;5005524;28;20034;-70
2022/05/24 07:47:47;;;;;;;2.78;0.80;;;14.40;98.60;;;;;;5136676;27;20388;-69
2022/05/24 07:50:12;;;;;;;5.15;0.52;;;14.40;98.80;;;;;;5121221;28;20019;-69
2022/05/24 07:52:38;;;;;;;2.08;0.57;;;14.20;97.10;;;;;;5120634;28;20036;-69
2022/05/24 07:55:04;;;;;;;0.77;0.40;;;14.20;97.70;;;;;;5102823;28;20020;-69
2022/05/24 07:57:30;;;;;;;10.48;0.75;;;14.10;97.40;;;;;;5100924;28;20024;-70
2022/05/24 07:59:55;;;;;;;0.55;0.32;;;14.10;97.70;;;;;;5104232;28;20047;-69
2022/05/24 08:02:21;;;;;;;2.05;0.50;;;14.10;97.10;;;;;;5108192;28;20035;-68
2022/05/24 08:04:47;;;;;;;2.10;0.50;;;14.10;96.50;;;;;;5108624;28;20075;-70
2022/05/24 08:07:13;;;;;;;2.60;0.52;;;14.10;96.40;;;;;;5118895;28;20031;-68
2022/05/24 08:09:39;;;;;;;1.50;0.32;;;14.20;97.80;;;;;;5120278;28;20023;-68
2022/05/24 08:12:05;;;;;;;5.40;0.68;;;14.40;97.00;;;;;;5117465;28;20030;-68
2022/05/24 08:14:31;;;;;;;2.22;0.47;;;14.50;97.50;;;;;;5113288;28;20322;-68
2022/05/24 08:16:56;;;;;;;2.95;0.70;;;14.50;95.30;;;;;;5108380;28;20019;-70
2022/05/24 08:19:22;;;;;;;1.75;0.45;;;14.40;96.30;;;;;;5119383;28;20240;-69
2022/05/24 08:21:48;;;;;;;2.80;0.45;;;14.40;96.00;;;;;;5106618;28;20046;-68
2022/05/24 08:24:15;;;;;;;3.40;0.50;;;14.30;96.10;;;;;;5099590;28;20304;-72
2022/05/24 08:26:40;;;;;;;8.65;0.60;;;14.30;95.80;;;;;;5111493;28;20030;-69
2022/05/24 08:29:06;;;;;;;7.20;0.80;;;14.10;96.60;;;;;;5136187;28;20016;-70
2022/05/24 08:31:32;;;;;;;1.83;0.40;;;14.30;96.80;;;;;;5120231;28;20047;-68
2022/05/24 08:33:58;;;;;;;6.30;0.70;;;14.30;95.40;;;;;;5120067;28;20015;-68
2022/05/24 08:36:24;;;;;;;7.60;0.60;;;14.40;95.80;;;;;;5119414;28;20325;-69
2022/05/24 08:38:49;;;;;;;2.63;0.50;;;14.40;95.40;;;;;;5107598;28;20024;-69
2022/05/24 08:41:35;;;;;;;12.02;1.40;;;14.50;96.00;;;;;;5100290;28;20051;-69
2022/05/24 08:49:56;;;;;;;1.13;0.47;;;14.60;95.20;;;;;;5118969;28;20215;-69
2022/05/24 08:52:24;;;;;;;14.32;1.00;;;14.70;95.00;;;;;;5117933;28;20065;-68
2022/05/24 08:54:50;;;;;;;4.00;0.70;;;14.90;96.50;;;;;;5134229;28;20023;-70
2022/05/24 08:57:39;;;;;;;1.98;0.40;;;15.00;94.80;;;;;;5120927;27;20032;-69
2022/05/24 09:00:11;;;;;;;1.88;0.55;;;14.90;95.50;;;;;;5106256;28;20040;-69
2022/05/24 09:02:42;;;;;;;0.98;0.60;;;15.00;95.60;;;;;;5104794;28;20051;-71
2022/05/24 09:05:17;;;;;;;6.03;0.60;;;15.20;94.80;;;;;;5091892;28;20028;-70
2022/05/24 09:08:07;;;;;;;4.15;0.90;;;15.20;94.60;;;;;;5092097;28;20223;-69
2022/05/24 09:10:45;;;;;;;1.60;0.50;;;15.10;94.70;;;;;;5104853;28;20024;-71
2022/05/24 09:13:50;;;;;;;8.90;0.70;;;15.30;93.80;;;;;;5106010;28;20015;-67
2022/05/24 09:16:17;;;;;;;3.72;0.75;;;15.30;93.90;;;;;;5093754;28;20028;-67
2022/05/24 09:19:04;;;;;;;3.28;0.63;;;15.10;93.90;;;;;;5105623;28;20028;-68
2022/05/24 09:21:33;;;;;;;4.20;0.47;;;15.00;93.50;;;;;;5104585;28;20027;-70
2022/05/24 09:24:30;;;;;;;1.05;0.30;;;15.00;93.00;;;;;;5105748;28;20265;-69
2022/05/24 09:27:18;;;;;;;0.85;0.20;;;15.10;92.50;;;;;;5097011;28;20024;-69
2022/05/24 09:30:07;;;;;;;9.13;0.60;;;15.20;91.30;;;;;;5083771;28;20088;-72
2022/05/24 09:32:39;;;;;;;3.35;0.40;;;15.20;91.80;;;;;;5094105;28;20266;-69
2022/05/24 09:35:23;;;;;;;2.45;0.80;;;15.50;92.30;;;;;;5104360;28;20095;-70
2022/05/24 09:38:17;;;;;;;2.25;0.30;;;15.70;91.80;;;;;;5102646;28;20066;-69
2022/05/24 09:40:54;;;;;;;4.32;0.60;;;15.80;91.60;;;;;;5084138;28;20028;-69
2022/05/24 09:43:29;;;;;;;6.72;1.00;;;15.80;92.70;;;;;;5083925;28;20016;-69
2022/05/24 09:46:05;;;;;;;1.98;0.90;;;16.00;93.10;;;;;;5065645;28;20086;-71
2022/05/24 09:48:34;;;;;;;2.20;0.90;;;16.20;93.00;;;;;;5085780;28;20021;-72
2022/05/24 09:51:03;;;;;;;0.70;0.60;;;16.40;92.90;;;;;;5092470;28;20031;-69
2022/05/24 09:53:31;;;;;;;3.65;0.80;;;16.40;92.60;;;;;;5085654;28;20023;-69
2022/05/24 09:56:02;;;;;;;2.80;0.75;;;16.60;92.40;;;;;;5103307;28;20096;-70
2022/05/24 09:58:39;;;;;;;1.65;0.80;;;16.70;92.00;;;;;;5104903;28;20211;-69
2022/05/24 10:01:36;;;;;;;0.50;0.50;;;16.80;92.80;;;;;;5103633;28;20023;-70
2022/05/24 10:04:27;;;;;;;2.90;0.50;;;16.80;90.20;;;;;;5103703;28;20030;-69
2022/05/24 10:06:57;;;;;;;5.78;0.82;;;16.60;90.70;;;;;;5089855;28;20031;-70
2022/05/24 10:09:48;;;;;;;2.78;0.70;;;16.60;91.90;;;;;;5065773;28;20040;-69
2022/05/24 10:12:54;;;;;;;3.92;1.05;;;16.50;90.00;;;;;;5098101;28;20242;-70
2022/05/24 10:15:44;;;;;;;1.48;0.80;;;16.50;92.40;;;;;;5086380;28;20016;-69
2022/05/24 10:18:49;;;;;;;3.47;0.75;;;16.50;92.40;;;;;;5083469;28;20318;-70
2022/05/24 10:21:31;;;;;;;1.65;0.70;;;16.50;91.70;;;;;;5083336;28;20032;-69
2022/05/24 10:24:23;;;;;;;10.60;1.23;;;16.30;91.60;;;;;;5082741;28;20034;-69
2022/05/24 10:27:01;;;;;;;1.60;0.63;;;16.30;91.60;;;;;;5090905;28;20030;-68
2022/05/24 10:29:55;;;;;;;1.25;0.82;;;16.20;90.80;;;;;;5102768;28;20045;-70
2022/05/24 10:39:06;;;;;;;8.70;2.08;;;16.10;93.60;;;;;;5102868;28;20077;-67
2022/05/24 10:42:02;;;;;;;4.32;1.33;;;16.10;94.10;;;;;;5094571;28;20020;-69
2022/05/24 10:44:49;;;;;;;5.65;1.63;;;16.40;93.30;;;;;;5089408;28;20047;-69
2022/05/24 10:47:55;;;;;;;6.07;0.90;;;16.40;93.30;;;;;;5100990;28;20059;-68
2022/05/24 10:50:33;;;;;;;3.28;0.90;;;16.50;91.60;;;;;;5091013;28;20016;-71
2022/05/24 10:53:08;;;;;;;4.28;1.00;;;16.70;90.70;;;;;;5102321;28;20035;-68
2022/05/24 10:55:40;;;;;;;2.92;1.40;;;16.70;90.30;;;;;;5103975;28;20043;-70
2022/05/24 10:58:09;;;;;;;;;;;16.50;90.90;;;;;;5102910;28;20090;-69
2022/05/24 11:00:40;;;;;;;3.33;0.85;;;16.20;89.70;;;;;;5102945;28;20191;-70
2022/05/24 11:03:12;;;;;;;2.30;0.60;;;16.20;90.70;;;;;;5102800;28;20341;-68
2022/05/24 11:05:50;;;;;;;5.55;0.90;;;16.50;90.20;;;;;;5102202;28;20306;-69
2022/05/24 11:08:55;;;;;;;2.78;0.63;;;16.80;89.10;;;;;;5086954;28;20031;-68
2022/05/24 11:11:36;;;;;;;1.00;0.50;;;17.00;85.50;;;;;;5079187;28;20200;-66
2022/05/24 11:14:10;;;;;;;5.53;0.95;;;17.10;86.20;;;;;;5082932;28;20326;-68
2022/05/24 11:16:43;;;;;;;1.38;0.60;;;17.30;86.10;;;;;;5084748;28;20024;-69
2022/05/24 11:19:25;;;;;;;2.95;0.90;;;17.40;85.60;;;;;;5100799;28;20028;-68
2022/05/24 11:22:30;;;;;;;3.17;0.90;;;17.10;86.10;;;;;;5089581;28;20015;-70
2022/05/24 11:25:20;;;;;;;2.03;0.90;;;17.10;86.70;;;;;;5090362;28;20026;-68
2022/05/24 11:28:13;;;;;;;2.70;1.10;;;17.00;87.50;;;;;;5098292;28;20059;-69
2022/05/24 11:30:41;;;;;;;2.40;1.02;;;17.10;89.00;;;;;;5082154;28;20087;-69
2022/05/24 11:33:11;;;;;;;2.47;0.85;;;17.00;88.40;;;;;;5081978;28;20080;-70
2022/05/24 11:35:53;;;;;;;3.88;0.80;;;16.90;87.70;;;;;;5089365;28;20016;-70
2022/05/24 11:38:36;;;;;;;6.65;1.10;;;17.10;88.50;;;;;;5103367;28;20303;-70
2022/05/24 11:41:31;;;;;;;4.22;0.70;;;17.20;88.90;;;;;;5101640;28;20027;-69
2022/05/24 11:44:01;;;;;;;1.65;0.47;;;17.30;88.50;;;;;;5081542;28;20235;-68
2022/05/24 11:46:41;;;;;;;2.40;0.80;;;17.30;84.90;;;;;;5085187;28;20035;-68
2022/05/24 11:49:30;;;;;;;3.20;0.63;;;17.20;85.00;;;;;;5085411;28;20020;-68
2022/05/24 11:51:58;;;;;;;3.20;0.85;;;17.20;86.60;;;;;;5102026;28;20192;-68
2022/05/24 11:54:54;;;;;;;2.28;0.60;;;17.20;87.80;;;;;;5102188;28;20024;-69
2022/05/24 11:57:26;;;;;;;8.93;1.10;;;17.20;85.80;;;;;;5103007;28;20016;-67
2022/05/24 11:59:52;;;;;;;4.65;0.80;;;17.10;88.90;;;;;;5101633;28;20016;-69
2022/05/24 12:08:29;;;;;;;4.68;0.88;;;17.50;85.20;;;;;;5088241;28;20020;-65
2022/05/24 12:11:17;;;;;;;3.85;0.80;;;17.70;86.40;;;;;;5103019;28;20074;-68
2022/05/24 12:13:57;;;;;;;2.13;0.65;;;17.70;84.20;;;;;;5102739;28;20032;-69
2022/05/24 12:17:02;;;;;;;3.42;0.80;;;17.40;84.20;;;;;;5101977;28;20027;-69
2022/05/24 12:19:48;;;;;;;4.18;0.70;;;17.10;85.00;;;;;;5090132;28;20027;-70
2022/05/24 12:22:16;;;;;;;1.83;0.60;;;16.80;83.10;;;;;;5101694;28;20015;-69
2022/05/24 12:24:47;;;;;;;1.27;0.73;;;16.60;84.10;;;;;;5101236;28;20095;-67
2022/05/24 12:27:49;;;;;;;4.60;0.77;;;16.60;84.30;;;;;;5101560;28;20028;-67
2022/05/24 12:30:36;;;;;;;4.43;0.80;;;16.90;83.00;;;;;;5101979;28;20028;-69
2022/05/24 12:33:25;;;;;;;4.20;0.85;;;17.30;82.10;;;;;;5102458;28;20071;-69
2022/05/24 12:35:57;;;;;;;2.97;0.52;;;17.60;82.00;;;;;;5105028;28;20023;-69
2022/05/24 12:38:26;;;;;;;1.33;0.50;;;17.70;81.50;;;;;;5097704;28;20059;-68
2022/05/24 12:41:14;;;;;;;4.63;0.95;;;17.70;80.90;;;;;;5086184;28;20111;-69
2022/05/24 12:43:51;;;;;;;2.05;0.50;;;17.70;81.50;;;;;;5085979;28;20016;-67
2022/05/24 12:46:17;;;;;;;2.10;0.52;;;17.60;81.20;;;;;;5089806;28;20218;-68
2022/05/24 12:48:42;;;;;;;0.50;0.20;;;17.40;82.40;;;;;;5103135;28;20032;-69
2022/05/24 12:51:10;;;;;;;2.13;0.47;;;17.40;83.70;;;;;;5104503;28;20023;-68
2022/05/24 12:53:38;;;;;;;4.63;0.60;;;17.40;83.90;;;;;;5105984;28;20199;-67
2022/05/24 12:56:14;;;;;;;2.33;0.50;;;17.40;85.00;;;;;;5106058;28;20024;-69
2022/05/24 12:58:43;;;;;;;3.20;0.70;;;17.20;85.10;;;;;;5067674;28;20036;-70
2022/05/24 13:01:28;;;;;;;1.08;0.40;;;17.00;84.90;;;;;;5105109;28;20087;-67
2022/05/24 13:04:08;;;;;;;2.80;0.40;;;16.90;85.60;;;;;;5104358;28;20027;-67
2022/05/24 13:06:37;;;;;;;3.92;0.40;;;17.00;86.20;;;;;;5104338;28;20028;-67
2022/05/24 13:09:34;;;;;;;4.07;0.52;;;17.00;85.10;;;;;;5104795;28;20024;-67
2022/05/24 13:12:03;;;;;;;2.15;0.40;;;17.00;86.20;;;;;;5104528;28;20024;-69
2022/05/24 13:15:05;;;;;;;1.33;0.40;;;17.30;86.60;;;;;;5105722;28;20020;-66
2022/05/24 13:17:39;;;;;;;3.37;0.83;;;17.60;85.70;;;;;;5104967;28;20024;-69
2022/05/24 13:20:11;;;;;;;3.28;0.55;;;17.60;84.10;;;;;;5104474;28;20211;-69
2022/05/24 13:22:43;;;;;;;4.15;0.65;;;17.50;83.60;;;;;;5088328;28;20020;-67
2022/05/24 13:25:28;;;;;;;3.42;0.52;;;17.50;83.60;;;;;;5105824;28;20026;-67
2022/05/24 13:27:57;;;;;;;2.80;0.60;;;17.40;84.60;;;;;;5104585;28;20035;-67
2022/05/24 13:33:44;;;;;;;4.07;0.65;;;17.30;82.20;;;;;;5104559;28;20095;-70
2022/05/24 13:36:30;;;;;;;1.95;0.47;;;17.20;81.60;;;;;;5103714;28;20020;-69
2022/05/24 13:39:10;;;;;;;2.20;0.30;;;17.10;82.00;;;;;;5104548;28;20358;-68
2022/05/24 13:41:39;;;;;;;3.15;0.45;;;17.00;82.30;;;;;;5090462;28;20017;-69
2022/05/24 13:44:27;;;;;;;4.55;0.40;;;16.80;82.90;;;;;;5085050;28;20020;-69
2022/05/24 13:47:00;;;;;;;1.83;0.30;;;16.70;84.10;;;;;;5078767;28;20044;-68
2022/05/24 13:49:29;;;;;;;3.63;0.43;;;16.60;84.90;;;;;;5102929;28;20032;-67
2022/05/24 13:52:17;;;;;;;6.57;0.60;;;16.50;85.60;;;;;;5105015;28;20024;-67
2022/05/24 13:54:44;;;;;;;2.65;0.38;;;16.50;86.70;;;;;;5105103;28;20042;-67
2022/05/24 13:57:31;;;;;;;2.80;0.60;;;16.70;86.10;;;;;;5087335;28;20032;-68
2022/05/24 14:00:05;;;;;;;3.67;0.40;;;16.60;86.60;;;;;;5103928;28;20028;-69
2022/05/24 14:02:31;;;;;;;2.90;0.90;;;16.70;85.90;;;;;;5105002;28;20024;-69
2022/05/24 14:04:57;;;;;;;4.75;0.43;;;16.80;86.90;;;;;;5104471;28;20024;-67